createdAt,value
2022-08-13T00:00:36.586Z,15.96
2022-08-13T00:03:57.911Z,15.90
2022-08-13T00:06:03.334Z,15.90
2022-08-13T00:08:29.835Z,15.84
2022-08-13T00:10:58.954Z,15.81
2022-08-13T00:13:43.860Z,15.76
2022-08-13T00:16:11.112Z,15.77
2022-08-13T00:18:39.288Z,15.71
2022-08-13T00:21:09.361Z,15.65
2022-08-13T00:23:53.969Z,15.58
2022-08-13T00:26:32.630Z,15.55
2022-08-13T00:29:01.562Z,15.48
2022-08-13T00:31:29.475Z,15.47
2022-08-13T00:33:59.415Z,15.44
2022-08-13T00:36:34.783Z,15.41
2022-08-13T00:39:05.486Z,15.37
2022-08-13T00:41:58.394Z,15.36
2022-08-13T00:44:27.159Z,15.31
2022-08-13T00:47:15.233Z,15.29
2022-08-13T00:50:00.381Z,15.26
2022-08-13T00:52:31.857Z,15.26
2022-08-13T00:55:00.802Z,15.23
2022-08-13T00:57:30.035Z,15.20
2022-08-13T00:59:56.788Z,15.16
2022-08-13T01:02:55.034Z,15.11
2022-08-13T01:05:11.326Z,15.08
2022-08-13T01:07:47.709Z,15.05
2022-08-13T01:10:21.530Z,15.00
2022-08-13T01:12:51.527Z,14.95
2022-08-13T01:15:19.415Z,14.91
2022-08-13T01:17:50.191Z,14.89
2022-08-13T01:20:33.653Z,14.81
2022-08-13T01:23:01.493Z,14.79
2022-08-13T01:25:29.615Z,14.79
2022-08-13T01:27:56.187Z,14.77
2022-08-13T01:30:23.447Z,14.76
2022-08-13T01:32:55.220Z,14.72
2022-08-13T01:35:23.294Z,14.65
2022-08-13T01:37:59.565Z,14.63
2022-08-13T01:40:32.174Z,14.59
2022-08-13T01:42:59.432Z,14.55
2022-08-13T01:45:30.909Z,14.52
2022-08-13T01:48:19.369Z,14.51
2022-08-13T01:50:52.094Z,14.46
2022-08-13T01:53:22.433Z,14.43
2022-08-13T01:56:15.563Z,14.39
2022-08-13T01:59:01.289Z,14.34
2022-08-13T02:01:42.046Z,14.32
2022-08-13T02:04:11.313Z,14.29
2022-08-13T02:06:38.951Z,14.24
2022-08-13T02:09:23.384Z,14.21
2022-08-13T02:11:52.547Z,14.13
2022-08-13T02:14:22.954Z,14.10
2022-08-13T02:16:53.709Z,14.07
2022-08-13T02:19:30.485Z,14.03
2022-08-13T02:22:02.112Z,14.01
2022-08-13T02:24:34.664Z,13.96
2022-08-13T02:27:01.101Z,13.95
2022-08-13T02:29:27.571Z,13.92
2022-08-13T02:32:06.132Z,13.90
2022-08-13T02:34:41.774Z,13.85
2022-08-13T02:37:32.630Z,13.81
2022-08-13T02:39:57.811Z,13.77
2022-08-13T02:42:24.357Z,13.72
2022-08-13T02:44:52.092Z,13.68
2022-08-13T02:47:33.949Z,13.64
2022-08-13T02:50:10.767Z,13.59
2022-08-13T02:52:38.093Z,13.56
2022-08-13T02:55:16.456Z,13.54
2022-08-13T02:57:43.097Z,13.47
2022-08-13T03:00:15.378Z,13.45
2022-08-13T03:02:46.294Z,13.43
2022-08-13T03:05:17.708Z,13.43
2022-08-13T03:07:53.710Z,13.42
2022-08-13T03:10:34.510Z,13.37
2022-08-13T03:13:22.019Z,13.33
2022-08-13T03:15:55.170Z,13.34
2022-08-13T03:18:39.215Z,13.29
2022-08-13T03:21:17.927Z,13.23
2022-08-13T03:23:44.752Z,13.21
2022-08-13T03:26:16.593Z,13.17
2022-08-13T03:28:43.071Z,13.14
2022-08-13T03:31:22.904Z,13.10
2022-08-13T03:34:03.923Z,13.10
2022-08-13T03:36:32.030Z,13.05
2022-08-13T03:38:59.152Z,13.00
2022-08-13T03:41:28.384Z,12.98
2022-08-13T03:43:55.676Z,12.94
2022-08-13T03:46:27.572Z,12.90
2022-08-13T03:48:54.550Z,12.89
2022-08-13T03:51:35.980Z,12.85
2022-08-13T03:54:02.922Z,12.85
2022-08-13T03:56:31.647Z,12.84
2022-08-13T03:58:58.216Z,12.84
2022-08-13T04:01:26.046Z,12.79
2022-08-13T04:03:52.530Z,12.78
2022-08-13T04:06:25.428Z,12.78
2022-08-13T04:08:54.774Z,12.69
2022-08-13T04:11:23.540Z,12.68
2022-08-13T04:14:07.046Z,12.67
2022-08-13T04:16:43.578Z,12.66
2022-08-13T04:19:17.311Z,12.65
2022-08-13T04:21:44.488Z,12.65
2022-08-13T04:24:15.996Z,12.63
2022-08-13T04:26:47.462Z,12.62
2022-08-13T04:29:17.776Z,12.59
2022-08-13T04:31:51.428Z,12.58
2022-08-13T04:34:38.196Z,12.57
2022-08-13T04:37:09.391Z,12.58
2022-08-13T04:40:06.090Z,12.59
2022-08-13T04:42:33.425Z,12.56
2022-08-13T04:45:04.484Z,12.54
2022-08-13T04:47:37.848Z,12.56
2022-08-13T04:50:10.681Z,12.55
2022-08-13T04:52:37.784Z,12.57
2022-08-13T04:55:05.384Z,12.59
2022-08-13T04:57:55.853Z,12.62
2022-08-13T05:00:30.318Z,12.64
2022-08-13T05:02:57.250Z,12.72
2022-08-13T05:05:25.632Z,12.83
2022-08-13T05:07:53.924Z,12.93
2022-08-13T05:10:30.238Z,12.94
2022-08-13T05:12:57.975Z,13.00
2022-08-13T05:15:41.235Z,13.02
2022-08-13T05:18:10.094Z,13.08
2022-08-13T05:20:51.531Z,13.11
2022-08-13T05:26:10.159Z,13.16
2022-08-13T05:26:31.520Z,13.22
2022-08-13T05:28:59.273Z,13.27
2022-08-13T05:31:29.813Z,13.35
2022-08-13T05:34:05.859Z,13.39
2022-08-13T05:38:13.761Z,13.42
2022-08-13T05:39:20.956Z,13.52
2022-08-13T05:42:07.061Z,13.53
2022-08-13T05:44:37.050Z,13.60
2022-08-13T05:47:06.054Z,13.70
2022-08-13T05:49:54.233Z,13.80
2022-08-13T05:52:36.529Z,13.89
2022-08-13T05:56:06.334Z,14.02
2022-08-13T05:57:54.530Z,14.12
2022-08-13T06:00:39.519Z,14.17
2022-08-13T06:04:16.853Z,14.31
2022-08-13T06:06:19.767Z,14.45
2022-08-13T06:08:47.709Z,14.55
2022-08-13T06:11:18.237Z,14.64
2022-08-13T06:14:05.161Z,14.74
2022-08-13T06:16:50.592Z,14.87
2022-08-13T06:19:27.162Z,15.05
2022-08-13T06:21:59.677Z,15.19
2022-08-13T06:24:26.841Z,15.38
2022-08-13T06:26:53.825Z,15.60
2022-08-13T06:29:21.626Z,15.88
2022-08-13T06:31:49.495Z,16.19
2022-08-13T06:34:33.608Z,16.60
2022-08-13T06:37:05.527Z,17.10
2022-08-13T06:39:33.212Z,17.54
2022-08-13T06:42:03.897Z,18.03
2022-08-13T06:44:34.163Z,18.46
2022-08-13T06:47:05.627Z,18.82
2022-08-13T06:49:58.908Z,19.23
2022-08-13T06:52:19.566Z,19.71
2022-08-13T06:54:46.264Z,20.09
2022-08-13T06:57:21.402Z,20.44
2022-08-13T07:00:10.656Z,20.76
2022-08-13T07:02:37.682Z,20.89
2022-08-13T07:05:07.658Z,21.34
2022-08-13T07:07:35.598Z,21.70
2022-08-13T07:10:02.751Z,22.00
2022-08-13T07:12:32.237Z,22.25
2022-08-13T07:14:59.375Z,22.53
2022-08-13T07:17:31.030Z,22.89
2022-08-13T07:20:05.890Z,23.05
2022-08-13T07:24:40.407Z,23.35
2022-08-13T07:25:23.840Z,23.55
2022-08-13T07:28:12.448Z,23.58
2022-08-13T07:30:42.393Z,24.00
2022-08-13T07:33:11.236Z,23.99
2022-08-13T07:35:51.390Z,24.33
2022-08-13T07:38:19.037Z,24.60
2022-08-13T07:40:49.734Z,24.85
2022-08-13T07:43:17.887Z,25.10
2022-08-13T07:46:27.314Z,25.51
2022-08-13T07:48:49.178Z,25.59
2022-08-13T07:51:20.885Z,26.02
2022-08-13T07:53:57.654Z,26.42
2022-08-13T07:56:33.218Z,26.44
2022-08-13T07:59:01.317Z,26.50
2022-08-13T08:02:04.725Z,26.62
2022-08-13T08:04:30.056Z,26.68
2022-08-13T08:06:58.401Z,26.94
2022-08-13T08:09:30.612Z,27.10
2022-08-13T08:12:18.359Z,27.20
2022-08-13T08:14:54.837Z,27.52
2022-08-13T08:18:15.454Z,27.77
2022-08-13T08:20:20.341Z,27.77
2022-08-13T08:22:48.413Z,27.19
2022-08-13T08:25:20.262Z,27.43
2022-08-13T08:27:52.505Z,27.16
2022-08-13T08:30:34.363Z,27.25
2022-08-13T08:33:03.207Z,27.14
2022-08-13T08:35:45.654Z,27.05
2022-08-13T08:38:47.165Z,27.18
2022-08-13T08:41:52.128Z,27.33
2022-08-13T08:44:24.843Z,27.32
2022-08-13T08:46:54.212Z,26.92
2022-08-13T08:49:35.142Z,26.63
2022-08-13T08:52:03.511Z,26.59
2022-08-13T08:54:32.509Z,26.40
2022-08-13T08:56:59.933Z,26.36
2022-08-13T08:59:29.060Z,26.18
2022-08-13T09:01:59.742Z,26.14
2022-08-13T09:04:46.864Z,26.05
2022-08-13T09:07:16.513Z,26.03
2022-08-13T09:09:44.401Z,25.95
2022-08-13T09:12:15.192Z,25.98
2022-08-13T09:14:41.920Z,26.00
2022-08-13T09:17:12.975Z,25.96
2022-08-13T09:19:47.079Z,25.98
2022-08-13T09:22:21.766Z,25.89
2022-08-13T09:24:52.548Z,25.96
2022-08-13T09:27:19.783Z,25.81
2022-08-13T09:29:57.566Z,25.86
2022-08-13T09:32:32.394Z,25.87
2022-08-13T09:35:00.847Z,25.99
2022-08-13T09:37:28.517Z,25.96
2022-08-13T09:40:18.130Z,25.99
2022-08-13T09:43:03.757Z,26.00
2022-08-13T09:45:36.890Z,25.96
2022-08-13T09:48:35.906Z,25.99
2022-08-13T09:50:57.121Z,25.99
2022-08-13T09:53:26.391Z,25.94
2022-08-13T09:55:58.184Z,26.19
2022-08-13T09:58:34.798Z,26.27
2022-08-13T10:01:05.506Z,26.41
2022-08-13T10:03:40.990Z,26.61
2022-08-13T10:06:08.352Z,26.60
2022-08-13T10:08:36.279Z,26.69
2022-08-13T10:11:06.229Z,26.76
2022-08-13T10:13:49.854Z,26.78
2022-08-13T10:16:17.575Z,26.73
2022-08-13T10:18:44.385Z,26.80
2022-08-13T10:21:14.913Z,26.99
2022-08-13T10:23:48.032Z,26.96
2022-08-13T10:26:18.569Z,27.04
2022-08-13T10:28:47.848Z,27.13
2022-08-13T10:31:49.128Z,27.14
2022-08-13T10:34:01.601Z,27.29
2022-08-13T10:36:33.858Z,27.15
2022-08-13T10:39:09.012Z,26.79
2022-08-13T10:41:44.571Z,26.94
2022-08-13T10:44:25.175Z,26.95
2022-08-13T10:46:54.742Z,26.84
2022-08-13T10:49:22.090Z,26.97
2022-08-13T10:52:04.122Z,27.16
2022-08-13T10:54:33.698Z,27.18
2022-08-13T10:57:04.149Z,27.35
2022-08-13T10:59:35.905Z,27.50
2022-08-13T11:02:02.974Z,27.63
2022-08-13T11:04:30.184Z,27.64
2022-08-13T11:06:56.900Z,27.63
2022-08-13T11:09:27.806Z,27.58
2022-08-13T11:12:03.288Z,27.68
2022-08-13T11:14:34.705Z,27.98
2022-08-13T11:17:04.625Z,28.13
2022-08-13T11:19:48.995Z,27.95
2022-08-13T11:22:27.081Z,28.14
2022-08-13T11:24:54.691Z,28.34
2022-08-13T11:27:23.445Z,28.30
2022-08-13T11:29:54.211Z,28.37
2022-08-13T11:32:23.010Z,28.49
2022-08-13T11:34:49.766Z,28.54
2022-08-13T11:37:16.355Z,29.07
2022-08-13T11:40:21.978Z,29.31
2022-08-13T11:42:29.785Z,29.63
2022-08-13T11:44:56.173Z,29.73
2022-08-13T11:47:30.994Z,29.81
2022-08-13T11:49:58.434Z,29.98
2022-08-13T11:52:28.354Z,29.97
2022-08-13T11:54:55.234Z,30.83
2022-08-13T11:57:21.982Z,31.01
2022-08-13T11:59:54.936Z,30.68
2022-08-13T12:02:29.716Z,31.24
2022-08-13T12:04:59.301Z,31.54
2022-08-13T12:07:27.045Z,31.61
2022-08-13T12:09:57.215Z,31.63
2022-08-13T12:12:31.072Z,31.77
2022-08-13T12:14:58.217Z,31.71
2022-08-13T12:17:49.975Z,31.84
2022-08-13T12:20:19.274Z,31.97
2022-08-13T12:22:57.862Z,31.30
2022-08-13T12:26:01.548Z,31.44
2022-08-13T12:28:27.590Z,32.14
2022-08-13T12:30:59.076Z,32.34
2022-08-13T12:33:30.480Z,32.21
2022-08-13T12:36:06.047Z,31.73
2022-08-13T12:38:32.615Z,31.56
2022-08-13T12:41:00.283Z,31.76
2022-08-13T12:44:05.179Z,32.02
2022-08-13T12:46:33.047Z,32.39
2022-08-13T12:49:01.441Z,32.69
2022-08-13T12:51:40.578Z,33.05
2022-08-13T12:54:31.163Z,33.17
2022-08-13T12:57:01.408Z,32.57
2022-08-13T12:59:32.067Z,32.51
2022-08-13T13:02:05.070Z,32.42
2022-08-13T13:04:31.572Z,33.24
2022-08-13T13:06:58.023Z,32.80
2022-08-13T13:09:48.347Z,32.87
2022-08-13T13:12:11.418Z,33.07
2022-08-13T13:14:38.717Z,33.40
2022-08-13T13:17:05.367Z,33.42
2022-08-13T13:20:06.702Z,32.45
2022-08-13T13:22:38.060Z,32.50
2022-08-13T13:25:05.204Z,33.08
2022-08-13T13:27:46.135Z,33.36
2022-08-13T13:30:14.004Z,33.77
2022-08-13T13:32:48.453Z,34.44
2022-08-13T13:35:37.589Z,34.82
2022-08-13T13:38:08.011Z,33.71
2022-08-13T13:40:37.982Z,33.11
2022-08-13T13:43:24.008Z,31.96
2022-08-13T13:46:03.236Z,31.27
2022-08-13T13:48:41.258Z,31.35
2022-08-13T13:51:10.105Z,32.06
2022-08-13T13:54:17.640Z,32.34
2022-08-13T13:56:23.675Z,32.16
2022-08-13T13:58:59.230Z,32.39
2022-08-13T14:01:26.505Z,32.65
2022-08-13T14:04:01.557Z,32.11
2022-08-13T14:06:28.835Z,32.27
2022-08-13T14:08:55.416Z,31.76
2022-08-13T14:11:22.036Z,32.01
2022-08-13T14:13:48.592Z,31.60
2022-08-13T14:16:16.228Z,31.81
2022-08-13T14:18:46.325Z,31.49
2022-08-13T14:21:14.115Z,31.71
2022-08-13T14:23:42.617Z,31.89
2022-08-13T14:26:14.967Z,32.00
2022-08-13T14:28:46.833Z,32.02
2022-08-13T14:31:14.076Z,31.74
2022-08-13T14:33:58.862Z,31.38
2022-08-13T14:36:30.160Z,30.84
2022-08-13T14:38:57.294Z,31.03
2022-08-13T14:41:23.833Z,30.77
2022-08-13T14:44:00.937Z,30.42
2022-08-13T14:46:29.180Z,30.55
2022-08-13T14:48:59.503Z,30.42
2022-08-13T14:51:27.154Z,30.14
2022-08-13T14:53:56.484Z,29.90
2022-08-13T14:56:24.835Z,29.23
2022-08-13T14:58:56.754Z,29.15
2022-08-13T15:01:24.687Z,29.07
2022-08-13T15:03:53.128Z,29.52
2022-08-13T15:06:21.585Z,29.37
2022-08-13T15:08:51.539Z,29.11
2022-08-13T15:11:18.460Z,29.13
2022-08-13T15:13:54.727Z,29.07
2022-08-13T15:16:26.155Z,29.56
2022-08-13T15:18:58.866Z,29.23
2022-08-13T15:21:48.003Z,28.90
2022-08-13T15:24:52.099Z,28.88
2022-08-13T15:27:34.746Z,29.11
2022-08-13T15:30:03.924Z,28.98
2022-08-13T15:32:33.453Z,28.79
2022-08-13T15:35:00.899Z,28.44
2022-08-13T15:37:57.833Z,28.27
2022-08-13T15:40:30.011Z,28.16
2022-08-13T15:42:58.393Z,28.18
2022-08-13T15:45:26.006Z,28.32
2022-08-13T15:47:56.163Z,28.30
2022-08-13T15:50:26.919Z,28.34
2022-08-13T15:52:55.647Z,28.24
2022-08-13T15:55:25.402Z,28.18
2022-08-13T15:57:54.591Z,28.04
2022-08-13T16:00:23.261Z,28.20
2022-08-13T16:02:56.651Z,28.01
2022-08-13T16:05:29.818Z,27.92
2022-08-13T16:08:06.562Z,27.86
2022-08-13T16:10:35.782Z,27.74
2022-08-13T16:13:05.174Z,27.73
2022-08-13T16:15:38.833Z,27.58
2022-08-13T16:18:25.547Z,27.52
2022-08-13T16:20:55.378Z,27.43
2022-08-13T16:23:22.344Z,27.41
2022-08-13T16:25:55.095Z,27.38
2022-08-13T16:28:22.498Z,27.39
2022-08-13T16:30:49.923Z,27.32
2022-08-13T16:33:19.295Z,27.43
2022-08-13T16:35:47.086Z,27.48
2022-08-13T16:38:15.362Z,27.45
2022-08-13T16:40:51.033Z,27.28
2022-08-13T16:43:18.202Z,27.18
2022-08-13T16:45:49.979Z,27.07
2022-08-13T16:48:17.179Z,27.02
2022-08-13T16:50:47.124Z,27.07
2022-08-13T16:53:23.660Z,27.06
2022-08-13T16:56:01.209Z,26.99
2022-08-13T16:58:29.666Z,26.91
2022-08-13T17:00:58.335Z,26.81
2022-08-13T17:03:58.507Z,26.75
2022-08-13T17:06:52.514Z,26.59
2022-08-13T17:09:20.273Z,26.39
2022-08-13T17:11:51.315Z,26.35
2022-08-13T17:14:19.469Z,26.32
2022-08-13T17:16:50.510Z,26.28
2022-08-13T17:19:18.970Z,26.27
2022-08-13T17:21:52.235Z,26.28
2022-08-13T17:24:20.236Z,26.21
2022-08-13T17:26:57.249Z,26.16
2022-08-13T17:29:55.422Z,26.06
2022-08-13T17:32:13.268Z,25.99
2022-08-13T17:34:43.851Z,25.86
2022-08-13T17:37:18.383Z,25.86
2022-08-13T17:39:56.089Z,25.80
2022-08-13T17:44:00.308Z,25.80
2022-08-13T17:45:29.827Z,25.73
2022-08-13T17:48:02.012Z,25.73
2022-08-13T17:50:41.495Z,25.64
2022-08-13T17:53:15.823Z,25.48
2022-08-13T17:55:50.698Z,25.45
2022-08-13T17:58:19.843Z,25.44
2022-08-13T18:01:01.691Z,25.31
2022-08-13T18:03:35.372Z,25.27
2022-08-13T18:06:26.806Z,25.14
2022-08-13T18:08:55.114Z,25.12
2022-08-13T18:11:21.614Z,25.09
2022-08-13T18:14:02.877Z,25.06
2022-08-13T18:17:05.598Z,24.98
2022-08-13T18:19:17.751Z,24.85
2022-08-13T18:21:45.769Z,24.81
2022-08-13T18:24:20.989Z,24.79
2022-08-13T18:26:56.424Z,24.72
2022-08-13T18:30:00.197Z,24.70
2022-08-13T18:32:12.125Z,24.62
2022-08-13T18:34:38.596Z,24.55
2022-08-13T18:37:17.095Z,24.53
2022-08-13T18:39:44.384Z,24.45
2022-08-13T18:42:11.421Z,24.35
2022-08-13T18:44:43.299Z,24.35
2022-08-13T18:47:22.506Z,24.31
2022-08-13T18:49:55.394Z,24.24
2022-08-13T18:52:38.531Z,24.18
2022-08-13T18:55:12.020Z,24.12
2022-08-13T18:57:39.049Z,24.08
2022-08-13T19:00:09.539Z,23.95
2022-08-13T19:02:41.121Z,23.93
2022-08-13T19:05:22.348Z,23.89
2022-08-13T19:07:51.714Z,23.82
2022-08-13T19:10:19.205Z,23.78
2022-08-13T19:12:48.855Z,23.77
2022-08-13T19:15:16.823Z,23.68
2022-08-13T19:17:55.554Z,23.61
2022-08-13T19:20:23.469Z,23.61
2022-08-13T19:23:01.138Z,23.54
2022-08-13T19:25:29.187Z,23.44
2022-08-13T19:28:05.226Z,23.40
2022-08-13T19:30:32.884Z,23.33
2022-08-13T19:32:59.652Z,23.28
2022-08-13T19:35:30.017Z,23.26
2022-08-13T19:37:58.448Z,23.23
2022-08-13T19:40:34.877Z,23.22
2022-08-13T19:43:06.171Z,23.20
2022-08-13T19:45:50.906Z,23.13
2022-08-13T19:48:38.185Z,23.09
2022-08-13T19:51:20.251Z,22.98
2022-08-13T19:53:56.298Z,22.93
2022-08-13T19:56:23.930Z,22.86
2022-08-13T19:59:01.964Z,22.81
2022-08-13T20:01:28.544Z,22.77
2022-08-13T20:03:56.514Z,22.69
2022-08-13T20:06:29.304Z,22.69
2022-08-13T20:09:01.344Z,22.64
2022-08-13T20:11:28.199Z,22.61
2022-08-13T20:13:58.123Z,22.58
2022-08-13T20:16:25.542Z,22.52
2022-08-13T20:18:55.551Z,22.47
2022-08-13T20:21:44.188Z,22.42
2022-08-13T20:25:44.007Z,22.38
2022-08-13T20:27:18.136Z,22.32
2022-08-13T20:29:58.747Z,22.27
2022-08-13T20:32:33.562Z,22.20
2022-08-13T20:35:22.452Z,22.14
2022-08-13T20:37:53.023Z,22.11
2022-08-13T20:40:22.030Z,22.10
2022-08-13T20:42:53.619Z,22.07
2022-08-13T20:45:22.605Z,22.00
2022-08-13T20:48:03.975Z,21.99
2022-08-13T20:50:31.979Z,21.98
2022-08-13T20:53:06.654Z,21.96
2022-08-13T20:55:41.550Z,21.93
2022-08-13T21:00:43.857Z,21.90
2022-08-13T21:00:55.770Z,21.82
2022-08-13T21:03:22.872Z,21.77
2022-08-13T21:05:51.611Z,21.67
2022-08-13T21:08:21.109Z,21.62
2022-08-13T21:10:51.211Z,21.58
2022-08-13T21:16:08.969Z,21.46
2022-08-13T21:18:30.486Z,21.38
2022-08-13T21:21:01.520Z,21.31
2022-08-13T21:23:28.743Z,21.23
2022-08-13T21:26:04.391Z,21.18
2022-08-13T21:28:37.414Z,21.13
2022-08-13T21:32:08.475Z,21.06
2022-08-13T21:34:05.534Z,21.00
2022-08-13T21:36:37.123Z,20.91
2022-08-13T21:39:08.582Z,20.87
2022-08-13T21:41:35.022Z,20.85
2022-08-13T21:44:02.393Z,20.78
2022-08-13T21:46:29.192Z,20.69
2022-08-13T21:48:56.517Z,20.70
2022-08-13T21:51:23.528Z,20.65
2022-08-13T21:53:54.068Z,20.56
2022-08-13T21:56:20.740Z,20.42
2022-08-13T21:58:51.201Z,20.38
2022-08-13T22:01:18.204Z,20.38
2022-08-13T22:04:02.634Z,20.37
2022-08-13T22:06:34.569Z,20.33
2022-08-13T22:09:02.843Z,20.30
2022-08-13T22:11:29.257Z,20.26
2022-08-13T22:13:59.125Z,20.22
2022-08-13T22:16:27.109Z,20.17
2022-08-13T22:18:54.282Z,20.10
2022-08-13T22:21:20.743Z,20.03
2022-08-13T22:23:47.553Z,20.00
2022-08-13T22:26:16.454Z,20.00
2022-08-13T22:29:02.152Z,19.99
2022-08-13T22:31:30.989Z,19.96
2022-08-13T22:34:03.260Z,19.92
2022-08-13T22:36:33.601Z,19.88
2022-08-13T22:39:05.575Z,19.80
2022-08-13T22:41:34.218Z,19.81
2022-08-13T22:44:02.052Z,19.79
2022-08-13T22:46:29.106Z,19.81
2022-08-13T22:48:58.441Z,19.77
2022-08-13T22:51:26.328Z,19.71
2022-08-13T22:53:58.031Z,19.64
2022-08-13T22:56:27.095Z,19.57
2022-08-13T22:58:53.842Z,19.51
2022-08-13T23:01:20.323Z,19.46
2022-08-13T23:03:48.424Z,19.38
2022-08-13T23:06:36.740Z,19.33
2022-08-13T23:09:01.624Z,19.26
2022-08-13T23:11:28.374Z,19.22
2022-08-13T23:13:55.898Z,19.18
2022-08-13T23:16:24.319Z,19.12
2022-08-13T23:18:51.731Z,19.07
2022-08-13T23:21:18.475Z,19.02
2022-08-13T23:23:49.069Z,18.99
2022-08-13T23:26:17.204Z,18.93
2022-08-13T23:28:44.968Z,18.91
2022-08-13T23:31:12.393Z,18.86
2022-08-13T23:33:39.918Z,18.81
2022-08-13T23:36:10.032Z,18.79
2022-08-13T23:38:37.672Z,18.75
2022-08-13T23:41:05.271Z,18.70
2022-08-13T23:43:33.343Z,18.66
2022-08-13T23:46:00.522Z,18.58
2022-08-13T23:48:27.005Z,18.52
2022-08-13T23:50:53.534Z,18.47
2022-08-13T23:53:24.801Z,18.42
2022-08-13T23:55:52.899Z,18.41
2022-08-13T23:58:34.284Z,18.38
